Time;durP1;ratioP1;P1;durP2;ratioP2;P2;SDS_P1;SDS_P2;PMS_P1;PMS_P2;Temp;Humidity;BMP_temperature;BMP_pressure;BME280_temperature;BME280_humidity;BME280_pressure;Samples;Min_cycle;Max_cycle;Signal;HPM_P1;HPM_P2
2021/08/26 00:05:40;;;;;;;33.88;17.27;;;;;;;19.64;72.44;100182.73;1768158;80;21323;-58
2021/08/26 00:07:46;;;;;;;41.90;19.25;;;;;;;19.56;72.84;100185.86;1768070;80;21375;-58
2021/08/26 00:10:53;;;;;;;35.78;18.82;;;;;;;19.48;73.07;100181.50;1768766;80;21834;-58
2021/08/26 00:14:01;;;;;;;30.08;19.70;;;;;;;19.40;73.30;100177.69;1767964;80;21399;-58
2021/08/26 00:17:06;;;;;;;34.75;20.88;;;;;;;19.31;73.41;100179.94;1767951;80;21809;-58
2021/08/26 00:20:12;;;;;;;34.88;20.65;;;;;;;19.26;73.39;100171.48;1768111;80;21444;-57
2021/08/26 00:23:17;;;;;;;29.90;19.27;;;;;;;19.22;73.50;100174.41;1768145;80;21348;-57
2021/08/26 00:26:23;;;;;;;28.55;19.85;;;;;;;19.15;73.77;100173.64;1780187;80;21355;-57
2021/08/26 00:29:29;;;;;;;28.70;18.67;;;;;;;19.09;74.05;100173.77;1788380;79;21777;-57
2021/08/26 00:32:37;;;;;;;37.03;19.62;;;;;;;19.03;74.29;100173.30;1782237;79;21201;-56
2021/08/26 00:35:42;;;;;;;31.45;18.52;;;;;;;18.98;74.47;100181.51;1765491;79;21793;-56
2021/08/26 00:38:48;;;;;;;34.85;19.50;;;;;;;18.94;74.92;100186.67;1782713;78;21434;-57
2021/08/26 00:41:56;;;;;;;33.23;19.00;;;;;;;18.93;75.71;100189.68;1768463;80;21343;-58
2021/08/26 00:45:01;;;;;;;30.25;19.70;;;;;;;18.93;76.26;100198.01;1767935;80;21336;-58
2021/08/26 00:48:07;;;;;;;29.72;18.62;;;;;;;18.87;76.48;100192.84;1769902;79;21257;-57
2021/08/26 00:51:13;;;;;;;36.63;18.95;;;;;;;18.83;76.93;100194.41;1768535;80;21340;-57
2021/08/26 00:54:20;;;;;;;29.57;17.52;;;;;;;18.80;77.12;100194.02;1768002;80;21224;-57
2021/08/26 00:57:27;;;;;;;34.00;18.55;;;;;;;18.78;77.23;100198.94;1771369;79;21347;-57
2021/08/26 01:00:34;;;;;;;32.17;18.92;;;;;;;18.76;77.24;100196.93;1789585;78;21772;-57
2021/08/26 01:03:58;;;;;;;36.53;22.80;;;;;;;18.76;77.27;100195.55;1754073;80;21304;-57
2021/08/26 01:07:24;;;;;;;44.40;21.68;;;;;;;18.76;77.15;100195.55;1742410;82;21351;-57
2021/08/26 01:10:32;;;;;;;36.30;24.05;;;;;;;18.76;76.91;100190.00;1742978;80;21212;-57
2021/08/26 01:13:46;;;;;;;46.92;24.75;;;;;;;18.73;76.72;100189.94;1742478;81;21743;-58
2021/08/26 01:16:52;;;;;;;44.27;25.37;;;;;;;18.69;76.74;100182.33;1742197;82;21358;-57
2021/08/26 01:19:57;;;;;;;39.98;25.10;;;;;;;18.64;76.87;100189.10;1741947;81;21476;-57
2021/08/26 01:23:03;;;;;;;40.90;25.37;;;;;;;18.62;76.90;100189.34;1749938;82;21220;-57
2021/08/26 01:26:13;;;;;;;42.88;25.82;;;;;;;18.58;76.81;100183.97;1754224;82;21287;-57
2021/08/26 01:29:18;;;;;;;44.42;25.43;;;;;;;18.55;76.79;100176.08;1754108;80;21224;-57
2021/08/26 01:32:27;;;;;;;43.75;23.77;;;;;;;18.50;76.74;100175.95;1754154;82;21287;-58
2021/08/26 01:35:35;;;;;;;36.00;23.27;;;;;;;18.43;76.87;100175.17;1750408;80;21291;-58
2021/08/26 01:38:41;;;;;;;39.33;23.77;;;;;;;18.38;77.07;100180.56;1744079;81;21263;-59
2021/08/26 01:41:53;;;;;;;35.15;23.90;;;;;;;18.34;77.17;100189.02;1733292;82;21192;-58
2021/08/26 01:45:02;;;;;;;38.25;23.57;;;;;;;18.30;77.34;100189.15;1744018;81;21256;-58
2021/08/26 01:48:08;;;;;;;31.80;20.08;;;;;;;18.27;77.64;100185.45;1744263;82;21244;-57
2021/08/26 01:51:15;;;;;;;28.65;18.80;;;;;;;18.25;77.94;100186.22;1744157;82;21237;-57
2021/08/26 01:54:20;;;;;;;36.15;18.98;;;;;;;18.24;78.18;100188.69;1744009;81;21283;-57
2021/08/26 01:57:33;;;;;;;31.42;19.70;;;;;;;18.23;78.42;100180.08;1720537;82;21721;-56
2021/08/26 02:00:39;;;;;;;35.83;19.75;;;;;;;18.24;78.57;100190.08;1721009;82;21407;-57
2021/08/26 02:03:46;;;;;;;28.32;17.80;;;;;;;18.28;78.51;100184.40;1734979;82;21303;-58
2021/08/26 02:06:51;;;;;;;27.37;18.30;;;;;;;18.29;78.43;100184.70;1752085;82;21355;-58
2021/08/26 02:09:56;;;;;;;29.80;19.10;;;;;;;18.27;78.37;100192.39;1752077;80;21307;-58
2021/08/26 02:13:01;;;;;;;26.52;17.98;;;;;;;18.29;78.39;100191.62;1735323;82;21189;-58
2021/08/26 02:16:06;;;;;;;29.90;18.05;;;;;;;18.31;78.30;100192.25;1735683;82;21244;-57
2021/08/26 02:19:12;;;;;;;31.52;18.57;;;;;;;18.31;78.24;100206.11;1735453;81;21221;-57
2021/08/26 02:22:17;;;;;;;27.73;18.60;;;;;;;18.31;78.53;100192.78;1734472;81;21327;-57
2021/08/26 02:25:25;;;;;;;28.35;18.87;;;;;;;18.32;78.69;100192.55;1767234;80;21176;-57
2021/08/26 02:28:31;;;;;;;26.42;18.70;;;;;;;18.34;78.87;100197.86;1771953;80;21195;-57
2021/08/26 02:31:38;;;;;;;28.80;19.15;;;;;;;18.33;78.97;100197.00;1731447;82;21256;-57
2021/08/26 02:34:45;;;;;;;30.30;18.80;;;;;;;18.32;79.02;100191.16;1775675;79;21219;-57
2021/08/26 02:37:50;;;;;;;28.23;18.55;;;;;;;18.32;79.39;100200.00;1767357;81;21192;-58
2021/08/26 02:40:57;;;;;;;33.98;20.45;;;;;;;18.30;79.55;100203.57;1773403;80;21401;-57
2021/08/26 02:44:02;;;;;;;32.08;20.02;;;;;;;18.28;79.63;100204.33;1736004;81;21316;-57
2021/08/26 02:47:07;;;;;;;32.20;20.23;;;;;;;18.27;79.51;100199.84;1767394;80;21248;-57
2021/08/26 02:50:15;;;;;;;33.88;21.07;;;;;;;18.23;79.40;100199.48;1773546;79;21362;-57
2021/08/26 02:53:20;;;;;;;39.05;23.18;;;;;;;18.20;79.40;100202.72;1751442;80;21251;-58
2021/08/26 02:56:26;;;;;;;32.10;20.82;;;;;;;18.16;79.72;100205.62;1770163;81;21357;-57
2021/08/26 02:59:32;;;;;;;32.35;20.85;;;;;;;18.17;80.07;100203.70;1764824;78;21407;-58
2021/08/26 03:02:36;;;;;;;30.88;20.92;;;;;;;18.18;80.60;100214.55;1736965;82;21272;-58
2021/08/26 03:05:42;;;;;;;30.40;20.57;;;;;;;18.19;80.85;100223.73;1737634;82;21390;-57
2021/08/26 03:08:49;;;;;;;33.08;21.12;;;;;;;18.21;80.91;100221.55;1737650;81;21241;-57
2021/08/26 03:11:55;;;;;;;40.55;21.33;;;;;;;18.19;80.82;100212.64;1737730;82;21698;-57
2021/08/26 03:15:01;;;;;;;34.38;21.07;;;;;;;18.20;80.92;100215.19;1737729;81;21265;-56
2021/08/26 03:18:06;;;;;;;33.60;20.10;;;;;;;18.23;80.84;100215.25;1737910;82;21260;-56
2021/08/26 03:21:14;;;;;;;33.78;20.25;;;;;;;18.23;80.73;100222.17;1738509;82;21229;-56
2021/08/26 03:24:18;;;;;;;30.32;19.77;;;;;;;18.20;80.49;100217.95;1725882;82;21701;-57
2021/08/26 03:27:24;;;;;;;26.68;19.02;;;;;;;18.17;80.34;100219.77;1725570;83;21209;-57
2021/08/26 03:30:31;;;;;;;30.48;20.45;;;;;;;18.13;80.23;100219.93;1725966;82;21280;-58
2021/08/26 03:33:36;;;;;;;47.95;35.92;;;;;;;18.10;80.21;100222.30;1725641;82;21749;-57
2021/08/26 03:36:41;;;;;;;45.65;27.32;;;;;;;18.06;80.31;100221.91;1725670;83;21307;-57
2021/08/26 03:39:48;;;;;;;35.70;23.67;;;;;;;18.06;80.34;100222.47;1725698;82;21801;-57
2021/08/26 03:42:54;;;;;;;30.37;19.40;;;;;;;18.10;80.44;100227.32;1725434;83;21276;-57
2021/08/26 03:46:00;;;;;;;30.08;19.80;;;;;;;18.16;80.38;100220.00;1712934;83;21345;-57
2021/08/26 03:49:07;;;;;;;29.57;19.85;;;;;;;18.20;80.23;100222.11;1725683;82;21405;-57
2021/08/26 03:52:13;;;;;;;27.40;19.57;;;;;;;18.25;80.27;100220.86;1725598;83;21209;-57
2021/08/26 03:55:17;;;;;;;32.08;19.73;;;;;;;18.28;79.99;100226.50;1725546;82;21209;-56
2021/08/26 03:58:24;;;;;;;36.73;19.25;;;;;;;18.24;79.79;100228.88;1725959;82;21774;-57
2021/08/26 04:01:31;;;;;;;29.40;19.15;;;;;;;18.23;79.63;100223.03;1738878;80;21236;-57
2021/08/26 04:04:38;;;;;;;27.35;18.77;;;;;;;18.25;79.70;100223.63;1736146;81;21363;-57
2021/08/26 04:07:46;;;;;;;30.62;19.02;;;;;;;18.29;79.59;100223.50;1738167;82;21712;-57
2021/08/26 04:10:53;;;;;;;25.20;18.23;;;;;;;18.32;79.35;100229.97;1738288;82;21363;-56
2021/08/26 04:14:00;;;;;;;28.05;19.65;;;;;;;18.36;79.08;100222.87;1738505;81;21222;-58
2021/08/26 04:17:07;;;;;;;34.13;20.60;;;;;;;18.38;78.81;100224.91;1738326;82;21209;-57
2021/08/26 04:20:14;;;;;;;28.75;20.08;;;;;;;18.37;78.59;100210.73;1726368;82;21376;-58
2021/08/26 04:23:19;;;;;;;35.15;20.77;;;;;;;18.35;78.69;100206.47;1733853;81;21446;-57
2021/08/26 04:26:25;;;;;;;40.05;22.32;;;;;;;18.39;78.66;100204.45;1738112;82;21733;-58
2021/08/26 04:29:33;;;;;;;33.70;21.15;;;;;;;18.45;78.85;100195.73;1737987;81;21800;-57
2021/08/26 04:32:38;;;;;;;33.42;21.42;;;;;;;18.55;78.84;100203.81;1737930;82;21225;-56
2021/08/26 04:35:44;;;;;;;26.82;19.57;;;;;;;18.60;78.63;100210.89;1804865;79;21390;-56
2021/08/26 04:38:52;;;;;;;28.60;19.65;;;;;;;18.63;78.56;100204.06;1768968;79;21399;-56
2021/08/26 04:41:58;;;;;;;29.75;20.20;;;;;;;18.69;78.69;100208.14;1714046;83;21196;-55
2021/08/26 04:45:05;;;;;;;43.20;21.60;;;;;;;18.78;78.93;100209.50;1742562;81;22071;-56
2021/08/26 04:48:12;;;;;;;38.67;21.10;;;;;;;18.92;79.16;100194.38;1732957;82;21228;-56
2021/08/26 04:51:19;;;;;;;28.40;19.48;;;;;;;19.05;79.10;100191.42;1752989;81;21746;-56
2021/08/26 04:54:24;;;;;;;31.95;20.62;;;;;;;19.21;79.32;100193.53;1767774;79;21410;-56
2021/08/26 04:57:30;;;;;;;30.10;20.40;;;;;;;19.40;79.34;100192.09;1788681;79;21355;-56
2021/08/26 05:00:35;;;;;;;29.30;19.67;;;;;;;19.56;79.07;100190.02;1789136;78;21402;-56
2021/08/26 05:03:41;;;;;;;27.73;19.27;;;;;;;19.74;78.69;100185.77;1770633;78;21406;-58
2021/08/26 05:06:49;;;;;;;34.83;21.45;;;;;;;19.84;78.09;100188.78;1725717;81;21408;-57
2021/08/26 05:09:54;;;;;;;32.67;18.60;;;;;;;19.97;77.89;100195.50;1730386;81;21554;-56
2021/08/26 05:13:00;;;;;;;26.10;18.70;;;;;;;20.09;77.83;100194.98;1730772;82;21193;-57
2021/08/26 05:16:06;;;;;;;25.37;18.52;;;;;;;20.25;77.45;100194.25;1771138;80;21709;-56
2021/08/26 05:19:12;;;;;;;23.90;16.70;;;;;;;20.43;77.02;100198.30;1754937;80;21247;-57
2021/08/26 05:22:17;;;;;;;31.25;18.75;;;;;;;20.56;76.27;100199.42;1747670;80;21248;-57
2021/08/26 05:25:24;;;;;;;22.25;17.37;;;;;;;20.67;75.90;100200.80;1714584;81;21321;-55
2021/08/26 05:28:31;;;;;;;22.30;17.60;;;;;;;20.79;75.30;100204.91;1757095;79;21438;-56
2021/08/26 05:31:38;;;;;;;26.33;17.92;;;;;;;20.89;74.94;100197.33;1755758;81;21821;-56
2021/08/26 05:34:45;;;;;;;29.37;17.82;;;;;;;20.98;74.65;100188.37;1769156;79;21863;-57
2021/08/26 05:37:52;;;;;;;24.30;17.32;;;;;;;21.12;74.47;100193.94;1747946;82;21746;-56
2021/08/26 05:40:56;;;;;;;27.45;17.73;;;;;;;21.26;74.26;100196.73;1756468;81;21544;-56
2021/08/26 05:44:01;;;;;;;22.45;17.02;;;;;;;21.39;73.61;100206.15;1781349;79;21209;-57
2021/08/26 05:47:08;;;;;;;24.35;16.62;;;;;;;21.48;73.24;100201.88;1798000;80;21689;-58
2021/08/26 05:50:15;;;;;;;24.02;17.12;;;;;;;21.57;72.81;100207.33;1798875;79;21736;-58
2021/08/26 05:53:20;;;;;;;27.42;17.70;;;;;;;21.69;72.60;100207.27;1807187;78;21204;-57
2021/08/26 05:56:27;;;;;;;25.48;17.45;;;;;;;21.79;72.52;100192.98;1790024;80;21209;-58
2021/08/26 05:59:31;;;;;;;25.48;17.00;;;;;;;21.95;72.44;100191.28;1765619;80;22251;-57
2021/08/26 06:02:37;;;;;;;29.35;17.07;;;;;;;22.08;72.12;100186.76;1767989;80;21323;-58
2021/08/26 06:05:43;;;;;;;30.97;16.25;;;;;;;22.25;71.87;100190.93;1767231;80;21203;-57
2021/08/26 06:08:50;;;;;;;25.30;16.80;;;;;;;22.38;71.81;100187.75;1816243;79;21346;-57
2021/08/26 06:11:56;;;;;;;33.80;17.32;;;;;;;22.52;71.56;100185.77;1763876;81;21343;-57
2021/08/26 06:15:02;;;;;;;25.92;17.10;;;;;;;22.73;71.49;100184.08;1804703;79;21391;-56
2021/08/26 06:18:09;;;;;;;24.15;16.50;;;;;;;22.90;70.76;100189.03;1771236;81;21698;-57
2021/08/26 06:21:17;;;;;;;23.80;15.98;;;;;;;23.12;69.75;100194.08;1782698;79;21355;-58
2021/08/26 06:24:22;;;;;;;23.60;15.58;;;;;;;23.34;69.08;100187.92;1778135;79;21228;-57
2021/08/26 06:27:30;;;;;;;27.25;15.93;;;;;;;23.58;68.05;100189.26;1764453;80;21198;-56
2021/08/26 06:30:37;;;;;;;24.47;14.93;;;;;;;23.82;67.38;100185.58;1811411;78;21346;-57
2021/08/26 06:33:45;;;;;;;25.15;15.45;;;;;;;24.08;66.91;100183.29;1781949;78;21248;-57
2021/08/26 06:36:50;;;;;;;26.55;13.32;;;;;;;24.32;66.41;100188.78;1736727;82;21332;-58
2021/08/26 06:40:01;;;;;;;20.27;14.05;;;;;;;24.53;65.78;100178.81;1806388;78;21167;-56
2021/08/26 06:43:07;;;;;;;17.25;12.20;;;;;;;24.74;64.86;100187.64;1806061;79;21174;-55
2021/08/26 06:46:13;;;;;;;21.73;12.70;;;;;;;24.95;63.92;100188.02;1788162;79;21259;-57
2021/08/26 06:49:22;;;;;;;21.75;12.78;;;;;;;25.12;62.04;100186.97;1744391;82;21759;-56
2021/08/26 06:52:28;;;;;;;17.73;12.63;;;;;;;25.30;61.72;100185.03;1809094;79;21353;-56
2021/08/26 06:55:35;;;;;;;21.02;11.65;;;;;;;25.43;61.33;100190.14;1810519;78;21366;-56
2021/08/26 06:58:43;;;;;;;19.85;11.18;;;;;;;25.51;60.03;100186.80;1800333;79;21386;-56
2021/08/26 07:01:50;;;;;;;14.75;10.38;;;;;;;25.66;59.39;100191.86;1799836;79;21382;-55
2021/08/26 07:04:55;;;;;;;15.15;10.75;;;;;;;25.83;57.19;100188.80;1744971;79;21769;-56
2021/08/26 07:08:00;;;;;;;18.30;10.13;;;;;;;26.02;57.04;100182.94;1770333;81;21184;-56
2021/08/26 07:11:05;;;;;;;17.35;10.18;;;;;;;26.20;56.46;100183.73;1791105;79;21751;-57
2021/08/26 07:14:13;;;;;;;20.23;10.98;;;;;;;26.34;55.67;100181.47;1772545;79;21320;-57
2021/08/26 07:17:19;;;;;;;22.85;15.30;;;;;;;26.48;55.35;100177.53;1772504;81;21334;-57
2021/08/26 07:20:24;;;;;;;15.90;10.72;;;;;;;26.57;54.11;100170.19;1771103;79;21217;-57
2021/08/26 07:23:29;;;;;;;17.07;11.18;;;;;;;26.67;52.77;100167.36;1793574;80;21186;-57
2021/08/26 07:26:34;;;;;;;17.02;9.58;;;;;;;26.75;52.25;100168.17;1801929;79;21344;-58
2021/08/26 07:29:40;;;;;;;27.13;16.12;;;;;;;26.79;50.73;100167.89;1804730;79;21334;-57
2021/08/26 07:32:48;;;;;;;17.48;11.65;;;;;;;26.82;51.34;100172.09;1763430;80;21236;-57
2021/08/26 07:35:55;;;;;;;19.65;10.38;;;;;;;26.85;50.70;100170.11;1779380;79;21323;-57
2021/08/26 07:39:00;;;;;;;16.40;10.32;;;;;;;26.93;50.66;100170.91;1729289;83;21543;-57
2021/08/26 07:42:05;;;;;;;19.12;9.75;;;;;;;27.01;51.01;100171.16;1756958;79;21702;-57
2021/08/26 07:45:13;;;;;;;15.78;9.58;;;;;;;27.11;51.07;100164.65;1786017;79;21236;-57
2021/08/26 07:48:20;;;;;;;17.40;10.10;;;;;;;27.23;50.13;100161.77;1768460;79;21216;-57
2021/08/26 07:51:24;;;;;;;16.32;9.65;;;;;;;27.32;50.01;100155.83;1764922;81;21144;-56
2021/08/26 07:54:29;;;;;;;13.08;9.40;;;;;;;27.46;50.11;100161.66;1803856;79;21215;-56
2021/08/26 07:57:34;;;;;;;23.02;11.25;;;;;;;27.59;49.82;100159.60;1751485;81;21187;-54
2021/08/26 08:00:41;;;;;;;16.25;9.78;;;;;;;27.71;48.93;100164.28;1796240;79;21821;-54
2021/08/26 08:03:46;;;;;;;18.17;10.50;;;;;;;27.84;48.17;100160.80;1800713;78;21308;-54
2021/08/26 08:06:52;;;;;;;13.98;10.82;;;;;;;27.93;46.94;100164.69;1765048;79;21690;-55
2021/08/26 08:09:57;;;;;;;15.10;10.00;;;;;;;28.01;46.23;100159.83;1769175;80;21355;-57
2021/08/26 08:13:03;;;;;;;14.00;9.58;;;;;;;28.11;46.03;100163.97;1766219;80;21320;-56
2021/08/26 08:16:10;;;;;;;15.28;9.25;;;;;;;28.23;46.66;100159.33;1760245;81;21606;-57
2021/08/26 08:19:17;;;;;;;25.08;17.57;;;;;;;28.28;46.08;100161.54;1766816;79;21300;-56
2021/08/26 08:22:22;;;;;;;16.05;11.60;;;;;;;28.28;46.27;100159.28;1754403;81;21324;-56
2021/08/26 08:25:28;;;;;;;74.58;58.40;;;;;;;28.26;46.02;100153.13;1769350;80;21831;-56
2021/08/26 08:28:36;;;;;;;35.17;27.10;;;;;;;28.22;45.72;100156.25;1737650;81;21402;-57
2021/08/26 08:31:42;;;;;;;32.00;22.22;;;;;;;28.19;45.28;100149.25;1755772;81;21350;-56
2021/08/26 08:34:48;;;;;;;25.12;13.20;;;;;;;28.19;45.97;100146.99;1766733;81;21367;-56
2021/08/26 08:37:55;;;;;;;22.50;13.72;;;;;;;28.14;45.73;100142.25;1757556;81;21708;-56
2021/08/26 08:41:01;;;;;;;17.57;12.30;;;;;;;28.13;45.56;100142.55;1767576;81;21391;-55
2021/08/26 08:44:09;;;;;;;19.17;10.50;;;;;;;28.19;46.08;100141.36;1711039;82;21377;-56
2021/08/26 08:47:15;;;;;;;15.20;9.80;;;;;;;28.21;45.18;100134.28;1722008;82;21192;-57
2021/08/26 08:50:20;;;;;;;15.08;9.40;;;;;;;28.17;44.41;100135.18;1742458;81;21276;-56
2021/08/26 08:53:25;;;;;;;13.75;8.85;;;;;;;28.10;44.11;100128.48;1744051;81;21324;-56
2021/08/26 08:56:31;;;;;;;12.25;8.00;;;;;;;28.08;43.85;100138.38;1736409;82;21641;-56
2021/08/26 08:59:41;;;;;;;13.48;8.20;;;;;;;28.11;43.42;100134.97;1763528;80;21423;-56
2021/08/26 09:02:48;;;;;;;14.40;8.25;;;;;;;28.17;42.82;100130.95;1762407;80;21319;-57
2021/08/26 09:06:10;;;;;;;14.53;8.23;;;;;;;28.22;42.46;100132.31;1760680;81;21269;-56
2021/08/26 09:09:16;;;;;;;13.88;7.03;;;;;;;28.27;42.79;100128.89;1765901;80;21766;-58
2021/08/26 09:12:21;;;;;;;12.10;6.70;;;;;;;28.32;41.58;100133.62;1767273;81;21319;-58
2021/08/26 09:15:30;;;;;;;13.32;6.47;;;;;;;28.33;41.42;100135.30;1736909;81;21364;-59
2021/08/26 09:18:35;;;;;;;13.05;5.90;;;;;;;28.33;41.71;100131.06;1764425;81;21368;-58
2021/08/26 09:21:46;;;;;;;8.85;5.70;;;;;;;28.36;40.68;100128.50;1754147;81;21189;-58
2021/08/26 09:24:56;;;;;;;10.37;6.97;;;;;;;28.44;40.63;100120.81;1764391;81;21193;-59
2021/08/26 09:28:02;;;;;;;11.45;6.05;;;;;;;28.52;40.00;100122.15;1751060;81;21189;-58
2021/08/26 09:31:28;;;;;;;8.65;6.28;;;;;;;28.54;40.61;100119.88;1756698;81;21208;-57
2021/08/26 09:34:33;;;;;;;13.65;6.60;;;;;;;28.53;40.32;100112.55;1736490;81;21382;-59
2021/08/26 09:37:39;;;;;;;12.98;6.60;;;;;;;28.54;40.14;100108.61;1744021;81;21367;-59
2021/08/26 09:40:51;;;;;;;13.22;7.78;;;;;;;28.60;40.22;100107.41;1754685;81;21399;-59
2021/08/26 09:44:00;;;;;;;10.60;7.37;;;;;;;28.68;40.93;100114.64;1755514;80;21374;-58
2021/08/26 09:47:12;;;;;;;13.35;7.47;;;;;;;28.89;40.34;100114.62;1760248;80;21221;-57
2021/08/26 09:50:20;;;;;;;11.53;7.75;;;;;;;28.89;40.34;100114.62;1760392;80;21738;-58
2021/08/26 09:53:30;;;;;;;14.30;8.55;;;;;;;29.01;41.26;100109.39;1725277;82;21242;-57
2021/08/26 09:56:48;;;;;;;10.58;7.67;;;;;;;29.19;41.32;100105.75;1762865;81;21320;-57
2021/08/26 09:59:58;;;;;;;13.55;7.70;;;;;;;29.33;41.88;100104.44;1755750;80;21340;-58
2021/08/26 10:03:09;;;;;;;13.93;8.35;;;;;;;29.33;41.88;100104.44;1763059;81;21739;-58
2021/08/26 10:06:13;;;;;;;12.47;7.70;;;;;;;29.53;42.60;100088.58;1756874;81;21231;-57
2021/08/26 10:09:18;;;;;;;14.28;7.58;;;;;;;29.53;42.60;100088.58;1763158;79;21774;-60
2021/08/26 10:12:25;;;;;;;12.35;7.28;;;;;;;29.66;42.38;100089.81;1764915;79;21683;-60
2021/08/26 10:15:30;;;;;;;12.73;7.08;;;;;;;29.69;42.57;100098.50;1760043;81;22047;-60
2021/08/26 10:18:37;;;;;;;10.70;7.20;;;;;;;29.69;42.57;100098.50;1756744;80;21204;-60
2021/08/26 10:21:43;;;;;;;12.98;7.42;;;;;;;29.77;42.61;100089.34;1753936;80;21180;-60
2021/08/26 10:24:47;;;;;;;18.35;7.53;;;;;;;29.77;42.61;100089.34;1738840;81;21196;-60
2021/08/26 10:27:54;;;;;;;14.10;8.03;;;;;;;29.83;42.04;100079.62;1754255;81;21247;-60
2021/08/26 10:30:59;;;;;;;9.13;6.87;;;;;;;29.83;42.04;100079.62;1765515;80;21169;-60
2021/08/26 10:34:31;;;;;;;9.35;6.40;;;;;;;29.76;41.50;100067.91;1758730;81;21257;-58
2021/08/26 10:37:34;;;;;;;13.62;7.08;;;;;;;29.76;41.50;100067.91;1759907;81;21185;-56
2021/08/26 10:40:43;;;;;;;18.98;7.45;;;;;;;29.79;41.17;100070.67;1767291;80;21190;-56
2021/08/26 10:43:48;;;;;;;11.45;7.25;;;;;;;29.78;40.68;100064.19;1763596;80;21240;-56
2021/08/26 10:47:03;;;;;;;14.05;7.60;;;;;;;30.07;40.33;100055.45;1764742;81;21189;-55
2021/08/26 10:50:27;;;;;;;13.38;7.87;;;;;;;30.07;40.33;100055.45;1767202;80;21823;-56
2021/08/26 10:53:37;;;;;;;15.13;7.28;;;;;;;30.24;39.91;100049.49;1743768;79;21179;-58
2021/08/26 10:56:44;;;;;;;13.48;7.33;;;;;;;30.46;40.50;100055.25;1773012;80;21327;-58
2021/08/26 10:59:51;;;;;;;16.27;7.17;;;;;;;30.64;40.26;100053.45;1773491;79;21216;-57
2021/08/26 11:03:01;;;;;;;13.43;6.58;;;;;;;30.78;40.28;100059.95;1800494;79;21300;-56
2021/08/26 11:06:30;;;;;;;15.65;6.37;;;;;;;30.85;40.02;100053.87;1800888;79;21181;-57
2021/08/26 11:09:40;;;;;;;16.40;6.12;;;;;;;30.85;40.13;100042.00;1799748;78;21486;-56
2021/08/26 11:12:45;;;;;;;12.20;6.67;;;;;;;30.81;39.33;100044.37;1781627;79;21177;-57
2021/08/26 11:15:52;;;;;;;23.30;6.87;;;;;;;30.72;39.15;100031.52;1738449;82;21229;-55
2021/08/26 11:19:03;;;;;;;12.40;6.62;;;;;;;30.55;39.04;100036.42;1737392;81;21260;-57
2021/08/26 11:22:14;;;;;;;9.90;6.47;;;;;;;30.36;38.99;100033.44;1741320;81;21209;-56
2021/08/26 11:25:24;;;;;;;12.28;6.20;;;;;;;30.19;39.46;100027.55;1795798;79;21879;-57
2021/08/26 11:28:39;;;;;;;8.28;5.87;;;;;;;30.04;39.82;100027.28;1766280;80;21213;-56
2021/08/26 11:31:45;;;;;;;12.98;5.85;;;;;;;29.92;39.95;100012.81;1804509;79;21754;-57
2021/08/26 11:34:58;;;;;;;13.80;5.87;;;;;;;29.82;40.35;100017.27;1741075;80;21267;-57
2021/08/26 11:38:06;;;;;;;14.43;6.05;;;;;;;29.75;40.51;100013.19;1736416;82;21826;-56
2021/08/26 11:41:12;;;;;;;11.75;5.67;;;;;;;29.63;40.72;100009.97;1731422;82;21232;-57
2021/08/26 11:44:22;;;;;;;8.45;5.22;;;;;;;29.49;40.44;100006.28;1767482;80;21294;-53
2021/08/26 11:47:38;;;;;;;9.83;6.37;;;;;;;29.49;40.44;100006.28;1796320;79;21311;-55
2021/08/26 11:50:46;;;;;;;13.40;5.92;;;;;;;29.47;40.15;100004.34;1769975;81;21688;-55
2021/08/26 11:53:51;;;;;;;8.23;5.17;;;;;;;29.46;39.84;100004.08;1734469;82;21205;-54
2021/08/26 11:56:59;;;;;;;11.03;6.22;;;;;;;29.40;40.52;99997.67;1718107;82;21273;-54
2021/08/26 12:00:17;;;;;;;11.75;7.30;;;;;;;29.39;40.29;99998.83;1744439;81;21219;-54
2021/08/26 12:03:25;;;;;;;16.00;8.25;;;;;;;29.35;40.52;99990.74;1738502;79;21339;-54
2021/08/26 12:06:31;;;;;;;19.87;8.20;;;;;;;29.23;41.04;99981.91;1764953;80;21220;-54
2021/08/26 12:09:39;;;;;;;26.33;10.70;;;;;;;29.23;41.04;99981.91;1758379;80;21257;-55
2021/08/26 12:12:56;;;;;;;24.57;9.90;;;;;;;29.23;41.27;99979.09;1732216;81;21176;-55
2021/08/26 12:16:01;;;;;;;11.68;6.78;;;;;;;29.24;41.63;99982.16;1734897;82;21690;-56
2021/08/26 12:19:06;;;;;;;13.30;6.35;;;;;;;29.27;41.46;99968.03;1723431;83;21172;-55
2021/08/26 12:22:13;;;;;;;15.03;6.25;;;;;;;29.28;41.08;99962.08;1700657;84;21617;-54
2021/08/26 12:25:26;;;;;;;14.50;5.92;;;;;;;29.40;41.15;99962.42;1691208;82;21222;-55
2021/08/26 12:28:36;;;;;;;15.78;5.67;;;;;;;29.40;41.15;99962.42;1767521;81;21403;-55
2021/08/26 12:31:47;;;;;;;10.43;5.87;;;;;;;29.51;40.85;99953.21;1736930;82;21713;-56
2021/08/26 12:34:52;;;;;;;8.50;5.80;;;;;;;29.61;41.19;99963.72;1714506;82;21302;-54
2021/08/26 12:38:06;;;;;;;15.85;6.20;;;;;;;29.64;40.71;99950.43;1740406;82;21316;-55
2021/08/26 12:41:24;;;;;;;9.93;5.50;;;;;;;29.55;40.46;99943.81;1765671;81;21232;-54
2021/08/26 12:44:34;;;;;;;9.53;5.97;;;;;;;29.46;40.47;99945.69;1765412;79;21200;-54
2021/08/26 12:47:42;;;;;;;11.50;6.10;;;;;;;29.36;40.72;99941.63;1733969;82;21160;-55
2021/08/26 12:50:48;;;;;;;7.70;6.15;;;;;;;29.27;40.88;99939.27;1776364;80;21757;-54
2021/08/26 12:54:07;;;;;;;11.45;6.20;;;;;;;29.18;41.14;99934.05;1756521;79;21211;-55
2021/08/26 12:57:13;;;;;;;9.93;5.70;;;;;;;29.08;41.57;99930.83;1756015;80;21176;-56
2021/08/26 13:00:18;;;;;;;10.70;5.83;;;;;;;28.95;41.64;99924.56;1726063;80;21196;-55
2021/08/26 13:03:26;;;;;;;10.13;6.37;;;;;;;28.91;41.69;99926.87;1771616;79;21185;-55
2021/08/26 13:06:52;;;;;;;11.83;7.20;;;;;;;28.88;42.12;99924.67;1757190;81;21278;-55
2021/08/26 13:10:07;;;;;;;9.10;7.10;;;;;;;28.85;41.94;99924.72;1743682;80;21207;-55
2021/08/26 13:13:20;;;;;;;11.20;7.00;;;;;;;28.75;42.08;99918.39;1770596;79;21876;-55
2021/08/26 13:16:27;;;;;;;10.75;6.35;;;;;;;28.68;42.37;99915.14;1804924;79;21840;-55
2021/08/26 13:19:32;;;;;;;14.30;7.17;;;;;;;28.61;42.77;99917.49;1786914;79;21205;-55
2021/08/26 13:22:44;;;;;;;15.13;7.47;;;;;;;28.54;42.97;99917.06;1796294;79;21872;-55
2021/08/26 13:25:50;;;;;;;14.98;7.10;;;;;;;28.47;43.12;99925.00;1796058;79;21338;-56
2021/08/26 13:28:57;;;;;;;13.22;7.08;;;;;;;28.39;43.30;99921.46;1801185;79;21216;-55
2021/08/26 13:32:01;;;;;;;11.73;7.15;;;;;;;28.30;43.72;99917.09;1746698;80;21189;-55
2021/08/26 13:35:09;;;;;;;10.80;7.08;;;;;;;28.20;43.81;99910.75;1770146;80;21973;-55
2021/08/26 13:38:14;;;;;;;19.50;7.35;;;;;;;28.08;44.14;99900.52;1769184;80;21904;-55
2021/08/26 13:41:21;;;;;;;12.93;6.42;;;;;;;27.97;44.14;99904.61;1770869;80;21363;-55
2021/08/26 13:44:26;;;;;;;9.43;6.95;;;;;;;27.88;44.30;99899.35;1770255;80;21347;-55
2021/08/26 13:47:32;;;;;;;12.30;6.45;;;;;;;27.79;44.47;99909.02;1768450;79;21320;-55
2021/08/26 13:50:39;;;;;;;14.35;6.42;;;;;;;27.67;44.91;99908.02;1766266;79;21347;-55
2021/08/26 13:53:49;;;;;;;12.65;7.08;;;;;;;27.56;45.17;99913.50;1767205;80;21348;-55
2021/08/26 13:56:55;;;;;;;15.85;6.72;;;;;;;27.46;45.33;99915.00;1803057;79;21849;-55
2021/08/26 14:00:05;;;;;;;19.00;7.47;;;;;;;27.36;45.52;99915.13;1766443;80;21245;-54
2021/08/26 14:03:11;;;;;;;11.85;6.45;;;;;;;27.27;46.06;99921.14;1803730;79;21386;-58
2021/08/26 14:06:18;;;;;;;15.58;6.65;;;;;;;27.18;46.57;99924.27;1766061;80;21201;-58
2021/08/26 14:09:25;;;;;;;11.28;6.67;;;;;;;27.07;46.87;99925.49;1767049;80;21406;-58
2021/08/26 14:12:31;;;;;;;13.00;6.55;;;;;;;26.98;46.88;99918.84;1787886;79;21808;-58
2021/08/26 14:15:40;;;;;;;15.15;7.08;;;;;;;26.92;46.92;99920.58;1758990;81;21770;-57
2021/08/26 14:18:45;;;;;;;19.50;7.22;;;;;;;26.83;47.23;99919.55;1785095;79;21346;-57
2021/08/26 14:21:50;;;;;;;14.58;7.92;;;;;;;26.75;47.06;99918.17;1787651;79;21710;-58